sensor_id;sensor_type;location;lat;lon;timestamp;P1;durP1;ratioP1;P2;durP2;ratioP2
50417;SDS011;36346;48.280;14.292;2023-03-04T00:01:06;60.42;;;58.82;;
50417;SDS011;36346;48.280;14.292;2023-03-04T00:03:34;59.73;;;58.14;;
50417;SDS011;36346;48.280;14.292;2023-03-04T00:06:03;59.04;;;57.69;;
50417;SDS011;36346;48.280;14.292;2023-03-04T00:08:31;59.30;;;57.65;;
50417;SDS011;36346;48.280;14.292;2023-03-04T00:11:00;58.67;;;56.97;;
50417;SDS011;36346;48.280;14.292;2023-03-04T00:13:28;58.99;;;57.52;;
50417;SDS011;36346;48.280;14.292;2023-03-04T00:15:55;59.50;;;57.74;;
50417;SDS011;36346;48.280;14.292;2023-03-04T00:18:24;59.76;;;58.21;;
50417;SDS011;36346;48.280;14.292;2023-03-04T00:20:51;58.93;;;57.75;;
50417;SDS011;36346;48.280;14.292;2023-03-04T00:23:19;59.96;;;58.38;;
50417;SDS011;36346;48.280;14.292;2023-03-04T00:25:47;59.90;;;58.35;;
50417;SDS011;36346;48.280;14.292;2023-03-04T00:28:15;61.26;;;59.54;;
50417;SDS011;36346;48.280;14.292;2023-03-04T00:30:43;61.42;;;59.57;;
50417;SDS011;36346;48.280;14.292;2023-03-04T00:33:11;61.05;;;59.44;;
50417;SDS011;36346;48.280;14.292;2023-03-04T00:35:39;60.23;;;58.83;;
50417;SDS011;36346;48.280;14.292;2023-03-04T00:38:07;60.54;;;59.02;;
50417;SDS011;36346;48.280;14.292;2023-03-04T00:40:36;60.42;;;58.31;;
50417;SDS011;36346;48.280;14.292;2023-03-04T00:43:04;60.66;;;58.91;;
50417;SDS011;36346;48.280;14.292;2023-03-04T00:45:32;60.74;;;59.30;;
50417;SDS011;36346;48.280;14.292;2023-03-04T00:48:00;60.94;;;59.40;;
50417;SDS011;36346;48.280;14.292;2023-03-04T00:50:28;61.07;;;59.18;;
50417;SDS011;36346;48.280;14.292;2023-03-04T00:52:56;60.71;;;59.23;;
50417;SDS011;36346;48.280;14.292;2023-03-04T00:55:24;61.48;;;59.82;;
50417;SDS011;36346;48.280;14.292;2023-03-04T00:57:52;60.34;;;58.56;;
50417;SDS011;36346;48.280;14.292;2023-03-04T01:00:20;61.05;;;59.44;;
50417;SDS011;36346;48.280;14.292;2023-03-04T01:02:48;60.69;;;58.80;;
50417;SDS011;36346;48.280;14.292;2023-03-04T01:05:16;59.03;;;57.52;;
50417;SDS011;36346;48.280;14.292;2023-03-04T01:07:44;59.58;;;58.21;;
50417;SDS011;36346;48.280;14.292;2023-03-04T01:10:12;59.00;;;57.50;;
50417;SDS011;36346;48.280;14.292;2023-03-04T01:12:41;58.79;;;57.35;;
50417;SDS011;36346;48.280;14.292;2023-03-04T01:15:11;59.89;;;58.40;;
50417;SDS011;36346;48.280;14.292;2023-03-04T01:17:40;60.86;;;59.24;;
50417;SDS011;36346;48.280;14.292;2023-03-04T01:20:08;61.72;;;60.02;;
50417;SDS011;36346;48.280;14.292;2023-03-04T01:22:36;60.28;;;59.03;;
50417;SDS011;36346;48.280;14.292;2023-03-04T01:25:05;61.98;;;60.55;;
50417;SDS011;36346;48.280;14.292;2023-03-04T01:27:33;61.50;;;60.01;;
50417;SDS011;36346;48.280;14.292;2023-03-04T01:30:01;62.57;;;60.90;;
50417;SDS011;36346;48.280;14.292;2023-03-04T01:32:30;62.23;;;60.47;;
50417;SDS011;36346;48.280;14.292;2023-03-04T01:34:58;61.91;;;60.01;;
50417;SDS011;36346;48.280;14.292;2023-03-04T01:37:26;61.13;;;59.67;;
50417;SDS011;36346;48.280;14.292;2023-03-04T01:39:54;62.57;;;60.56;;
50417;SDS011;36346;48.280;14.292;2023-03-04T01:42:22;61.94;;;60.12;;
50417;SDS011;36346;48.280;14.292;2023-03-04T01:44:53;61.91;;;60.35;;
50417;SDS011;36346;48.280;14.292;2023-03-04T01:47:21;62.50;;;60.66;;
50417;SDS011;36346;48.280;14.292;2023-03-04T01:49:52;60.98;;;59.61;;
50417;SDS011;36346;48.280;14.292;2023-03-04T01:52:21;62.85;;;61.07;;
50417;SDS011;36346;48.280;14.292;2023-03-04T01:54:50;62.33;;;60.78;;
50417;SDS011;36346;48.280;14.292;2023-03-04T01:57:22;63.21;;;61.63;;
50417;SDS011;36346;48.280;14.292;2023-03-04T02:02:42;62.37;;;60.78;;
50417;SDS011;36346;48.280;14.292;2023-03-04T02:05:10;61.94;;;60.37;;
50417;SDS011;36346;48.280;14.292;2023-03-04T02:07:40;63.76;;;62.26;;
50417;SDS011;36346;48.280;14.292;2023-03-04T02:10:10;63.29;;;62.02;;
50417;SDS011;36346;48.280;14.292;2023-03-04T02:12:39;63.20;;;61.67;;
50417;SDS011;36346;48.280;14.292;2023-03-04T02:15:07;62.56;;;61.01;;
50417;SDS011;36346;48.280;14.292;2023-03-04T02:17:35;63.03;;;61.23;;
50417;SDS011;36346;48.280;14.292;2023-03-04T02:22:42;63.59;;;61.69;;
50417;SDS011;36346;48.280;14.292;2023-03-04T02:25:32;61.94;;;60.24;;
50417;SDS011;36346;48.280;14.292;2023-03-04T02:28:08;63.33;;;61.66;;
50417;SDS011;36346;48.280;14.292;2023-03-04T02:30:36;61.88;;;60.36;;
50417;SDS011;36346;48.280;14.292;2023-03-04T02:33:04;62.51;;;60.52;;
50417;SDS011;36346;48.280;14.292;2023-03-04T02:35:32;61.31;;;59.86;;
50417;SDS011;36346;48.280;14.292;2023-03-04T02:38:00;62.84;;;60.79;;
50417;SDS011;36346;48.280;14.292;2023-03-04T02:40:28;62.20;;;60.51;;
50417;SDS011;36346;48.280;14.292;2023-03-04T02:42:59;62.49;;;60.58;;
50417;SDS011;36346;48.280;14.292;2023-03-04T02:45:29;64.14;;;61.94;;
50417;SDS011;36346;48.280;14.292;2023-03-04T02:48:01;63.50;;;61.38;;
50417;SDS011;36346;48.280;14.292;2023-03-04T02:50:36;62.55;;;60.94;;
50417;SDS011;36346;48.280;14.292;2023-03-04T02:53:11;62.07;;;60.42;;
50417;SDS011;36346;48.280;14.292;2023-03-04T02:55:39;65.69;;;63.74;;
50417;SDS011;36346;48.280;14.292;2023-03-04T02:58:09;64.00;;;62.17;;
50417;SDS011;36346;48.280;14.292;2023-03-04T03:00:38;65.08;;;63.24;;
50417;SDS011;36346;48.280;14.292;2023-03-04T03:03:07;63.74;;;61.94;;
50417;SDS011;36346;48.280;14.292;2023-03-04T03:05:36;64.78;;;62.97;;
50417;SDS011;36346;48.280;14.292;2023-03-04T03:08:05;64.66;;;62.93;;
50417;SDS011;36346;48.280;14.292;2023-03-04T03:10:33;65.06;;;63.30;;
50417;SDS011;36346;48.280;14.292;2023-03-04T03:13:02;65.62;;;63.70;;
50417;SDS011;36346;48.280;14.292;2023-03-04T03:15:30;65.37;;;63.80;;
50417;SDS011;36346;48.280;14.292;2023-03-04T03:17:58;65.58;;;63.99;;
50417;SDS011;36346;48.280;14.292;2023-03-04T03:20:26;65.01;;;63.51;;
50417;SDS011;36346;48.280;14.292;2023-03-04T03:22:54;67.20;;;65.23;;
50417;SDS011;36346;48.280;14.292;2023-03-04T03:25:22;67.50;;;65.16;;
50417;SDS011;36346;48.280;14.292;2023-03-04T03:27:53;66.77;;;65.16;;
50417;SDS011;36346;48.280;14.292;2023-03-04T03:30:21;66.01;;;64.20;;
50417;SDS011;36346;48.280;14.292;2023-03-04T03:32:49;66.35;;;64.30;;
50417;SDS011;36346;48.280;14.292;2023-03-04T03:35:17;66.66;;;64.70;;
50417;SDS011;36346;48.280;14.292;2023-03-04T03:37:45;65.65;;;63.73;;
50417;SDS011;36346;48.280;14.292;2023-03-04T03:40:15;65.39;;;63.98;;
50417;SDS011;36346;48.280;14.292;2023-03-04T03:42:43;67.27;;;65.19;;
50417;SDS011;36346;48.280;14.292;2023-03-04T03:45:11;66.13;;;64.22;;
50417;SDS011;36346;48.280;14.292;2023-03-04T03:47:39;65.65;;;63.87;;
50417;SDS011;36346;48.280;14.292;2023-03-04T03:50:07;65.36;;;63.82;;
50417;SDS011;36346;48.280;14.292;2023-03-04T03:52:35;65.51;;;63.85;;
50417;SDS011;36346;48.280;14.292;2023-03-04T03:55:03;68.13;;;66.29;;
50417;SDS011;36346;48.280;14.292;2023-03-04T03:57:31;66.87;;;65.42;;
50417;SDS011;36346;48.280;14.292;2023-03-04T03:59:59;67.67;;;66.13;;
50417;SDS011;36346;48.280;14.292;2023-03-04T04:02:38;67.06;;;65.51;;
50417;SDS011;36346;48.280;14.292;2023-03-04T04:05:07;67.52;;;65.53;;
50417;SDS011;36346;48.280;14.292;2023-03-04T04:07:36;65.53;;;64.18;;
50417;SDS011;36346;48.280;14.292;2023-03-04T04:10:04;66.48;;;64.79;;
50417;SDS011;36346;48.280;14.292;2023-03-04T04:12:33;67.55;;;65.73;;
50417;SDS011;36346;48.280;14.292;2023-03-04T04:15:00;67.05;;;65.26;;
50417;SDS011;36346;48.280;14.292;2023-03-04T04:17:29;67.69;;;65.78;;
50417;SDS011;36346;48.280;14.292;2023-03-04T04:19:57;67.18;;;65.39;;
50417;SDS011;36346;48.280;14.292;2023-03-04T04:22:24;66.65;;;65.12;;
50417;SDS011;36346;48.280;14.292;2023-03-04T04:24:52;66.17;;;64.67;;
50417;SDS011;36346;48.280;14.292;2023-03-04T04:27:20;67.38;;;65.71;;
50417;SDS011;36346;48.280;14.292;2023-03-04T04:29:49;67.19;;;65.32;;
50417;SDS011;36346;48.280;14.292;2023-03-04T04:32:17;67.49;;;65.42;;
50417;SDS011;36346;48.280;14.292;2023-03-04T04:34:45;66.66;;;65.20;;
50417;SDS011;36346;48.280;14.292;2023-03-04T04:37:12;67.45;;;65.54;;
50417;SDS011;36346;48.280;14.292;2023-03-04T04:39:40;66.99;;;64.93;;
50417;SDS011;36346;48.280;14.292;2023-03-04T04:42:09;67.10;;;65.13;;
50417;SDS011;36346;48.280;14.292;2023-03-04T04:44:37;66.01;;;64.03;;
50417;SDS011;36346;48.280;14.292;2023-03-04T04:47:05;69.44;;;67.28;;
50417;SDS011;36346;48.280;14.292;2023-03-04T04:49:33;68.96;;;67.10;;
50417;SDS011;36346;48.280;14.292;2023-03-04T04:52:03;69.13;;;67.06;;
50417;SDS011;36346;48.280;14.292;2023-03-04T04:54:31;69.87;;;67.68;;
50417;SDS011;36346;48.280;14.292;2023-03-04T04:56:59;67.55;;;65.61;;
50417;SDS011;36346;48.280;14.292;2023-03-04T04:59:27;67.35;;;65.56;;
50417;SDS011;36346;48.280;14.292;2023-03-04T05:01:55;68.26;;;66.35;;
50417;SDS011;36346;48.280;14.292;2023-03-04T05:04:23;68.62;;;66.64;;
50417;SDS011;36346;48.280;14.292;2023-03-04T05:06:51;66.42;;;65.06;;
50417;SDS011;36346;48.280;14.292;2023-03-04T05:09:18;67.11;;;65.44;;
50417;SDS011;36346;48.280;14.292;2023-03-04T05:11:47;68.08;;;66.49;;
50417;SDS011;36346;48.280;14.292;2023-03-04T05:14:15;68.40;;;66.92;;
50417;SDS011;36346;48.280;14.292;2023-03-04T05:16:43;69.08;;;67.02;;
50417;SDS011;36346;48.280;14.292;2023-03-04T05:19:11;69.40;;;67.83;;
50417;SDS011;36346;48.280;14.292;2023-03-04T05:21:39;69.24;;;67.60;;
50417;SDS011;36346;48.280;14.292;2023-03-04T05:24:07;68.03;;;66.28;;
50417;SDS011;36346;48.280;14.292;2023-03-04T05:26:35;69.67;;;67.64;;
50417;SDS011;36346;48.280;14.292;2023-03-04T05:29:03;68.69;;;67.10;;
50417;SDS011;36346;48.280;14.292;2023-03-04T05:31:31;68.62;;;67.21;;
50417;SDS011;36346;48.280;14.292;2023-03-04T05:33:59;69.18;;;67.76;;
50417;SDS011;36346;48.280;14.292;2023-03-04T05:36:27;70.46;;;68.42;;
50417;SDS011;36346;48.280;14.292;2023-03-04T05:38:55;71.66;;;69.35;;
50417;SDS011;36346;48.280;14.292;2023-03-04T05:41:23;71.38;;;69.07;;
50417;SDS011;36346;48.280;14.292;2023-03-04T05:43:52;71.15;;;68.74;;
50417;SDS011;36346;48.280;14.292;2023-03-04T05:46:20;69.75;;;67.94;;
50417;SDS011;36346;48.280;14.292;2023-03-04T05:48:52;70.32;;;68.31;;
50417;SDS011;36346;48.280;14.292;2023-03-04T05:51:22;70.72;;;68.50;;
50417;SDS011;36346;48.280;14.292;2023-03-04T05:53:50;68.61;;;66.50;;
50417;SDS011;36346;48.280;14.292;2023-03-04T05:56:18;68.64;;;66.59;;
50417;SDS011;36346;48.280;14.292;2023-03-04T05:58:46;69.34;;;67.15;;
50417;SDS011;36346;48.280;14.292;2023-03-04T06:01:15;70.29;;;68.21;;
50417;SDS011;36346;48.280;14.292;2023-03-04T06:03:43;70.96;;;68.80;;
50417;SDS011;36346;48.280;14.292;2023-03-04T06:06:11;69.89;;;67.98;;
50417;SDS011;36346;48.280;14.292;2023-03-04T06:08:39;75.28;;;72.80;;
50417;SDS011;36346;48.280;14.292;2023-03-04T06:11:07;70.84;;;69.23;;
50417;SDS011;36346;48.280;14.292;2023-03-04T06:13:35;69.59;;;67.66;;
50417;SDS011;36346;48.280;14.292;2023-03-04T06:16:04;68.57;;;66.95;;
50417;SDS011;36346;48.280;14.292;2023-03-04T06:18:33;69.93;;;67.77;;
50417;SDS011;36346;48.280;14.292;2023-03-04T06:21:01;68.37;;;66.27;;
50417;SDS011;36346;48.280;14.292;2023-03-04T06:23:30;70.64;;;68.37;;
50417;SDS011;36346;48.280;14.292;2023-03-04T06:25:58;70.19;;;68.25;;
50417;SDS011;36346;48.280;14.292;2023-03-04T06:28:28;72.22;;;70.15;;
50417;SDS011;36346;48.280;14.292;2023-03-04T06:30:56;74.25;;;72.17;;
50417;SDS011;36346;48.280;14.292;2023-03-04T06:33:24;75.68;;;73.13;;
50417;SDS011;36346;48.280;14.292;2023-03-04T06:35:53;70.52;;;68.58;;
50417;SDS011;36346;48.280;14.292;2023-03-04T06:38:22;71.28;;;69.19;;
50417;SDS011;36346;48.280;14.292;2023-03-04T06:40:51;70.05;;;68.24;;
50417;SDS011;36346;48.280;14.292;2023-03-04T06:43:22;74.17;;;71.73;;
50417;SDS011;36346;48.280;14.292;2023-03-04T06:45:50;74.05;;;72.17;;
50417;SDS011;36346;48.280;14.292;2023-03-04T06:48:19;72.70;;;71.24;;
50417;SDS011;36346;48.280;14.292;2023-03-04T06:50:47;73.68;;;71.80;;
50417;SDS011;36346;48.280;14.292;2023-03-04T06:53:15;73.73;;;72.19;;
50417;SDS011;36346;48.280;14.292;2023-03-04T06:55:43;73.44;;;71.61;;
50417;SDS011;36346;48.280;14.292;2023-03-04T06:58:11;75.05;;;72.69;;
50417;SDS011;36346;48.280;14.292;2023-03-04T07:00:39;74.01;;;72.08;;
50417;SDS011;36346;48.280;14.292;2023-03-04T07:03:08;74.67;;;72.41;;
50417;SDS011;36346;48.280;14.292;2023-03-04T07:05:38;72.97;;;71.26;;
50417;SDS011;36346;48.280;14.292;2023-03-04T07:08:06;73.38;;;71.57;;
50417;SDS011;36346;48.280;14.292;2023-03-04T07:10:34;74.14;;;72.13;;
50417;SDS011;36346;48.280;14.292;2023-03-04T07:13:02;74.04;;;72.09;;
50417;SDS011;36346;48.280;14.292;2023-03-04T07:15:30;73.56;;;71.76;;
50417;SDS011;36346;48.280;14.292;2023-03-04T07:17:58;72.51;;;70.77;;
50417;SDS011;36346;48.280;14.292;2023-03-04T07:20:26;71.79;;;69.95;;
50417;SDS011;36346;48.280;14.292;2023-03-04T07:22:56;71.19;;;69.22;;
50417;SDS011;36346;48.280;14.292;2023-03-04T07:25:24;72.67;;;70.61;;
50417;SDS011;36346;48.280;14.292;2023-03-04T07:27:52;72.50;;;70.57;;
50417;SDS011;36346;48.280;14.292;2023-03-04T07:30:21;72.14;;;69.90;;
50417;SDS011;36346;48.280;14.292;2023-03-04T07:32:49;73.03;;;70.98;;
50417;SDS011;36346;48.280;14.292;2023-03-04T07:35:17;75.08;;;72.49;;
50417;SDS011;36346;48.280;14.292;2023-03-04T07:37:45;74.70;;;72.68;;
50417;SDS011;36346;48.280;14.292;2023-03-04T07:40:13;73.50;;;71.58;;
50417;SDS011;36346;48.280;14.292;2023-03-04T07:42:41;72.75;;;70.90;;
50417;SDS011;36346;48.280;14.292;2023-03-04T07:45:14;72.71;;;70.67;;
50417;SDS011;36346;48.280;14.292;2023-03-04T07:47:42;71.76;;;70.02;;
50417;SDS011;36346;48.280;14.292;2023-03-04T07:50:11;69.74;;;67.78;;
50417;SDS011;36346;48.280;14.292;2023-03-04T07:52:40;69.36;;;67.82;;
50417;SDS011;36346;48.280;14.292;2023-03-04T07:55:09;66.10;;;64.66;;
50417;SDS011;36346;48.280;14.292;2023-03-04T07:57:38;66.02;;;64.43;;
50417;SDS011;36346;48.280;14.292;2023-03-04T08:00:11;63.75;;;61.96;;
50417;SDS011;36346;48.280;14.292;2023-03-04T08:02:41;64.64;;;62.74;;
50417;SDS011;36346;48.280;14.292;2023-03-04T08:05:10;62.98;;;61.49;;
50417;SDS011;36346;48.280;14.292;2023-03-04T08:07:37;57.68;;;56.38;;
50417;SDS011;36346;48.280;14.292;2023-03-04T08:10:05;56.39;;;54.94;;
50417;SDS011;36346;48.280;14.292;2023-03-04T08:12:35;54.48;;;52.90;;
50417;SDS011;36346;48.280;14.292;2023-03-04T08:15:03;48.98;;;47.90;;
50417;SDS011;36346;48.280;14.292;2023-03-04T08:17:31;44.46;;;43.58;;
50417;SDS011;36346;48.280;14.292;2023-03-04T08:19:59;44.43;;;43.10;;
50417;SDS011;36346;48.280;14.292;2023-03-04T08:22:27;41.68;;;40.62;;
50417;SDS011;36346;48.280;14.292;2023-03-04T08:24:55;42.13;;;41.38;;
50417;SDS011;36346;48.280;14.292;2023-03-04T08:27:23;43.62;;;42.04;;
50417;SDS011;36346;48.280;14.292;2023-03-04T08:29:51;42.69;;;41.24;;
50417;SDS011;36346;48.280;14.292;2023-03-04T08:32:19;41.02;;;40.10;;
50417;SDS011;36346;48.280;14.292;2023-03-04T08:34:48;40.95;;;40.03;;
50417;SDS011;36346;48.280;14.292;2023-03-04T08:37:16;42.22;;;41.29;;
50417;SDS011;36346;48.280;14.292;2023-03-04T08:39:44;41.17;;;40.48;;
50417;SDS011;36346;48.280;14.292;2023-03-04T08:42:12;41.04;;;40.10;;
50417;SDS011;36346;48.280;14.292;2023-03-04T08:44:40;41.70;;;40.65;;
50417;SDS011;36346;48.280;14.292;2023-03-04T08:47:08;38.47;;;37.57;;
50417;SDS011;36346;48.280;14.292;2023-03-04T08:49:36;38.65;;;37.79;;
50417;SDS011;36346;48.280;14.292;2023-03-04T08:52:04;36.45;;;35.65;;
50417;SDS011;36346;48.280;14.292;2023-03-04T08:54:32;36.80;;;36.03;;
50417;SDS011;36346;48.280;14.292;2023-03-04T08:57:00;37.97;;;36.77;;
50417;SDS011;36346;48.280;14.292;2023-03-04T08:59:29;38.03;;;37.19;;
50417;SDS011;36346;48.280;14.292;2023-03-04T09:01:57;38.83;;;38.07;;
50417;SDS011;36346;48.280;14.292;2023-03-04T09:04:25;38.81;;;38.06;;
50417;SDS011;36346;48.280;14.292;2023-03-04T09:06:53;44.74;;;43.93;;
50417;SDS011;36346;48.280;14.292;2023-03-04T09:09:21;40.89;;;40.16;;
50417;SDS011;36346;48.280;14.292;2023-03-04T09:11:49;42.52;;;41.77;;
50417;SDS011;36346;48.280;14.292;2023-03-04T09:14:17;45.14;;;44.20;;
50417;SDS011;36346;48.280;14.292;2023-03-04T09:16:45;44.52;;;43.47;;
50417;SDS011;36346;48.280;14.292;2023-03-04T09:19:13;43.97;;;42.81;;
50417;SDS011;36346;48.280;14.292;2023-03-04T09:21:40;43.47;;;42.65;;
50417;SDS011;36346;48.280;14.292;2023-03-04T09:24:08;40.92;;;40.14;;
50417;SDS011;36346;48.280;14.292;2023-03-04T09:26:36;39.68;;;38.91;;
50417;SDS011;36346;48.280;14.292;2023-03-04T09:29:04;39.34;;;38.54;;
50417;SDS011;36346;48.280;14.292;2023-03-04T09:31:33;38.75;;;37.78;;
50417;SDS011;36346;48.280;14.292;2023-03-04T09:34:01;38.05;;;37.33;;
50417;SDS011;36346;48.280;14.292;2023-03-04T09:36:29;37.45;;;36.63;;
50417;SDS011;36346;48.280;14.292;2023-03-04T09:39:00;38.13;;;37.42;;
50417;SDS011;36346;48.280;14.292;2023-03-04T09:41:48;38.38;;;37.45;;
50417;SDS011;36346;48.280;14.292;2023-03-04T09:44:29;37.31;;;36.58;;
50417;SDS011;36346;48.280;14.292;2023-03-04T09:47:13;35.08;;;34.29;;
50417;SDS011;36346;48.280;14.292;2023-03-04T09:49:44;34.39;;;33.65;;
50417;SDS011;36346;48.280;14.292;2023-03-04T10:00:43;35.06;;;34.22;;
50417;SDS011;36346;48.280;14.292;2023-03-04T10:03:23;33.33;;;32.76;;
50417;SDS011;36346;48.280;14.292;2023-03-04T10:06:00;30.11;;;29.48;;
50417;SDS011;36346;48.280;14.292;2023-03-04T10:08:43;28.13;;;27.47;;
50417;SDS011;36346;48.280;14.292;2023-03-04T10:11:20;29.26;;;28.80;;
50417;SDS011;36346;48.280;14.292;2023-03-04T10:22:19;26.65;;;26.11;;
50417;SDS011;36346;48.280;14.292;2023-03-04T10:25:17;24.68;;;24.25;;
50417;SDS011;36346;48.280;14.292;2023-03-04T10:33:26;24.19;;;23.74;;
50417;SDS011;36346;48.280;14.292;2023-03-04T10:38:47;24.44;;;23.91;;
50417;SDS011;36346;48.280;14.292;2023-03-04T10:41:19;24.29;;;23.62;;
50417;SDS011;36346;48.280;14.292;2023-03-04T10:46:25;22.32;;;21.76;;
50417;SDS011;36346;48.280;14.292;2023-03-04T10:48:53;21.94;;;21.51;;
50417;SDS011;36346;48.280;14.292;2023-03-04T10:51:26;21.89;;;21.55;;
50417;SDS011;36346;48.280;14.292;2023-03-04T10:54:08;21.30;;;20.97;;
50417;SDS011;36346;48.280;14.292;2023-03-04T10:57:33;21.88;;;21.46;;
50417;SDS011;36346;48.280;14.292;2023-03-04T10:59:47;22.81;;;22.28;;
50417;SDS011;36346;48.280;14.292;2023-03-04T11:07:52;22.43;;;22.21;;
50417;SDS011;36346;48.280;14.292;2023-03-04T11:10:26;23.96;;;23.43;;
50417;SDS011;36346;48.280;14.292;2023-03-04T11:12:59;24.16;;;23.79;;
50417;SDS011;36346;48.280;14.292;2023-03-04T11:15:29;24.71;;;24.27;;
50417;SDS011;36346;48.280;14.292;2023-03-04T11:20:57;26.02;;;25.45;;
50417;SDS011;36346;48.280;14.292;2023-03-04T11:26:04;27.62;;;27.03;;
50417;SDS011;36346;48.280;14.292;2023-03-04T11:28:40;28.10;;;27.62;;
50417;SDS011;36346;48.280;14.292;2023-03-04T11:31:21;27.77;;;27.35;;
50417;SDS011;36346;48.280;14.292;2023-03-04T11:39:23;28.83;;;28.24;;
50417;SDS011;36346;48.280;14.292;2023-03-04T11:42:12;31.46;;;30.67;;
50417;SDS011;36346;48.280;14.292;2023-03-04T11:44:45;31.11;;;30.65;;
50417;SDS011;36346;48.280;14.292;2023-03-04T12:03:43;31.85;;;31.11;;
50417;SDS011;36346;48.280;14.292;2023-03-04T12:21:08;32.32;;;31.64;;
50417;SDS011;36346;48.280;14.292;2023-03-04T12:26:42;32.17;;;31.56;;
50417;SDS011;36346;48.280;14.292;2023-03-04T12:32:10;29.21;;;28.77;;
50417;SDS011;36346;48.280;14.292;2023-03-04T12:43:12;28.03;;;27.46;;
50417;SDS011;36346;48.280;14.292;2023-03-04T12:49:43;28.50;;;28.01;;
50417;SDS011;36346;48.280;14.292;2023-03-04T12:52:16;28.21;;;27.77;;
50417;SDS011;36346;48.280;14.292;2023-03-04T12:54:55;27.37;;;26.89;;
50417;SDS011;36346;48.280;14.292;2023-03-04T12:57:25;26.74;;;26.36;;
50417;SDS011;36346;48.280;14.292;2023-03-04T13:02:55;25.40;;;25.05;;
50417;SDS011;36346;48.280;14.292;2023-03-04T13:05:40;25.69;;;25.23;;
50417;SDS011;36346;48.280;14.292;2023-03-04T13:08:47;24.71;;;24.35;;
50417;SDS011;36346;48.280;14.292;2023-03-04T13:14:21;25.00;;;24.64;;
50417;SDS011;36346;48.280;14.292;2023-03-04T13:17:01;24.89;;;24.42;;
50417;SDS011;36346;48.280;14.292;2023-03-04T13:22:49;23.50;;;23.07;;
50417;SDS011;36346;48.280;14.292;2023-03-04T13:28:12;24.40;;;24.07;;
50417;SDS011;36346;48.280;14.292;2023-03-04T13:43:49;23.86;;;23.50;;
50417;SDS011;36346;48.280;14.292;2023-03-04T13:51:24;23.41;;;23.03;;
50417;SDS011;36346;48.280;14.292;2023-03-04T14:06:49;23.29;;;23.02;;
50417;SDS011;36346;48.280;14.292;2023-03-04T14:09:22;23.81;;;23.41;;
50417;SDS011;36346;48.280;14.292;2023-03-04T14:11:57;22.89;;;22.76;;
50417;SDS011;36346;48.280;14.292;2023-03-04T14:14:46;23.85;;;23.57;;
50417;SDS011;36346;48.280;14.292;2023-03-04T14:17:22;23.82;;;23.60;;
50417;SDS011;36346;48.280;14.292;2023-03-04T14:19:58;24.61;;;24.29;;
50417;SDS011;36346;48.280;14.292;2023-03-04T14:22:37;25.47;;;24.99;;
50417;SDS011;36346;48.280;14.292;2023-03-04T14:27:40;24.74;;;24.22;;
50417;SDS011;36346;48.280;14.292;2023-03-04T14:30:22;25.14;;;24.81;;
50417;SDS011;36346;48.280;14.292;2023-03-04T14:33:11;24.68;;;24.44;;
50417;SDS011;36346;48.280;14.292;2023-03-04T14:35:50;24.79;;;24.54;;
50417;SDS011;36346;48.280;14.292;2023-03-04T14:43:35;24.51;;;24.23;;
50417;SDS011;36346;48.280;14.292;2023-03-04T14:46:31;24.21;;;23.79;;
50417;SDS011;36346;48.280;14.292;2023-03-04T14:49:12;24.29;;;23.99;;
50417;SDS011;36346;48.280;14.292;2023-03-04T14:51:48;23.32;;;23.00;;
50417;SDS011;36346;48.280;14.292;2023-03-04T14:54:30;23.16;;;22.74;;
50417;SDS011;36346;48.280;14.292;2023-03-04T14:57:00;22.42;;;22.05;;
50417;SDS011;36346;48.280;14.292;2023-03-04T14:59:48;22.68;;;22.32;;
50417;SDS011;36346;48.280;14.292;2023-03-04T15:02:26;22.59;;;22.11;;
50417;SDS011;36346;48.280;14.292;2023-03-04T15:05:07;22.24;;;22.00;;
50417;SDS011;36346;48.280;14.292;2023-03-04T15:07:48;21.78;;;21.56;;
50417;SDS011;36346;48.280;14.292;2023-03-04T15:10:34;22.69;;;22.41;;
50417;SDS011;36346;48.280;14.292;2023-03-04T15:13:05;21.37;;;20.99;;
50417;SDS011;36346;48.280;14.292;2023-03-04T15:15:37;21.17;;;20.98;;
50417;SDS011;36346;48.280;14.292;2023-03-04T15:23:30;19.69;;;19.37;;
50417;SDS011;36346;48.280;14.292;2023-03-04T15:26:00;19.17;;;18.93;;
50417;SDS011;36346;48.280;14.292;2023-03-04T15:28:31;18.47;;;18.36;;
50417;SDS011;36346;48.280;14.292;2023-03-04T15:31:03;18.45;;;18.33;;
50417;SDS011;36346;48.280;14.292;2023-03-04T15:33:31;18.66;;;18.45;;
50417;SDS011;36346;48.280;14.292;2023-03-04T15:36:00;20.15;;;19.82;;
50417;SDS011;36346;48.280;14.292;2023-03-04T15:38:29;19.89;;;19.69;;
50417;SDS011;36346;48.280;14.292;2023-03-04T15:40:57;19.11;;;18.85;;
50417;SDS011;36346;48.280;14.292;2023-03-04T15:43:26;19.95;;;19.66;;
50417;SDS011;36346;48.280;14.292;2023-03-04T15:45:54;20.18;;;19.82;;
50417;SDS011;36346;48.280;14.292;2023-03-04T15:48:22;18.84;;;18.61;;
50417;SDS011;36346;48.280;14.292;2023-03-04T15:50:53;19.01;;;18.68;;
50417;SDS011;36346;48.280;14.292;2023-03-04T15:56:06;19.75;;;19.51;;
50417;SDS011;36346;48.280;14.292;2023-03-04T15:58:38;20.19;;;19.85;;
50417;SDS011;36346;48.280;14.292;2023-03-04T16:01:07;19.81;;;19.53;;
50417;SDS011;36346;48.280;14.292;2023-03-04T16:03:38;21.42;;;20.99;;
50417;SDS011;36346;48.280;14.292;2023-03-04T16:06:08;20.39;;;20.09;;
50417;SDS011;36346;48.280;14.292;2023-03-04T16:08:37;20.57;;;20.30;;
50417;SDS011;36346;48.280;14.292;2023-03-04T16:11:09;19.41;;;19.15;;
50417;SDS011;36346;48.280;14.292;2023-03-04T16:13:43;19.06;;;18.89;;
50417;SDS011;36346;48.280;14.292;2023-03-04T16:16:11;18.32;;;18.10;;
50417;SDS011;36346;48.280;14.292;2023-03-04T16:18:41;18.89;;;18.73;;
50417;SDS011;36346;48.280;14.292;2023-03-04T16:21:10;18.87;;;18.63;;
50417;SDS011;36346;48.280;14.292;2023-03-04T16:23:42;18.51;;;18.29;;
50417;SDS011;36346;48.280;14.292;2023-03-04T16:26:14;17.73;;;17.45;;
50417;SDS011;36346;48.280;14.292;2023-03-04T16:28:44;18.32;;;18.02;;
50417;SDS011;36346;48.280;14.292;2023-03-04T16:31:13;18.01;;;17.75;;
50417;SDS011;36346;48.280;14.292;2023-03-04T16:33:42;18.33;;;18.10;;
50417;SDS011;36346;48.280;14.292;2023-03-04T16:36:15;18.23;;;18.00;;
50417;SDS011;36346;48.280;14.292;2023-03-04T16:38:48;19.52;;;19.18;;
50417;SDS011;36346;48.280;14.292;2023-03-04T16:41:16;18.52;;;18.26;;
50417;SDS011;36346;48.280;14.292;2023-03-04T16:43:49;18.68;;;18.32;;
50417;SDS011;36346;48.280;14.292;2023-03-04T16:46:17;18.85;;;18.44;;
50417;SDS011;36346;48.280;14.292;2023-03-04T16:48:46;19.57;;;19.11;;
50417;SDS011;36346;48.280;14.292;2023-03-04T16:51:15;18.87;;;18.53;;
50417;SDS011;36346;48.280;14.292;2023-03-04T16:53:47;19.50;;;19.11;;
50417;SDS011;36346;48.280;14.292;2023-03-04T16:56:18;18.83;;;18.38;;
50417;SDS011;36346;48.280;14.292;2023-03-04T16:58:47;18.70;;;18.35;;
50417;SDS011;36346;48.280;14.292;2023-03-04T17:03:48;18.60;;;18.28;;
50417;SDS011;36346;48.280;14.292;2023-03-04T17:06:16;18.51;;;18.14;;
50417;SDS011;36346;48.280;14.292;2023-03-04T17:08:45;20.58;;;20.13;;